sensor_id;sensor_type;location;lat;lon;timestamp;pressure;altitude;pressure_sealevel;temperature
42119;BMP280;27783;42.782;23.274;2024-02-26T00:01:25;95103.69;;;5.81
42119;BMP280;27783;42.782;23.274;2024-02-26T00:03:50;95112.66;;;5.45
42119;BMP280;27783;42.782;23.274;2024-02-26T00:06:17;95120.81;;;5.08
42119;BMP280;27783;42.782;23.274;2024-02-26T00:08:43;95114.41;;;5.02
42119;BMP280;27783;42.782;23.274;2024-02-26T00:11:09;95111.09;;;5.40
42119;BMP280;27783;42.782;23.274;2024-02-26T00:13:35;95115.50;;;5.65
42119;BMP280;27783;42.782;23.274;2024-02-26T00:16:01;95116.91;;;5.59
42119;BMP280;27783;42.782;23.274;2024-02-26T00:18:27;95109.78;;;5.56
42119;BMP280;27783;42.782;23.274;2024-02-26T00:20:52;95112.22;;;5.75
42119;BMP280;27783;42.782;23.274;2024-02-26T00:23:17;95107.84;;;5.85
42119;BMP280;27783;42.782;23.274;2024-02-26T00:25:43;95104.19;;;6.00
42119;BMP280;27783;42.782;23.274;2024-02-26T00:28:10;95107.94;;;5.99
42119;BMP280;27783;42.782;23.274;2024-02-26T00:30:38;95111.84;;;6.18
42119;BMP280;27783;42.782;23.274;2024-02-26T00:33:04;95097.38;;;6.38
42119;BMP280;27783;42.782;23.274;2024-02-26T00:35:29;95094.09;;;6.51
42119;BMP280;27783;42.782;23.274;2024-02-26T00:37:54;95092.53;;;6.40
42119;BMP280;27783;42.782;23.274;2024-02-26T00:40:20;95092.09;;;6.31
42119;BMP280;27783;42.782;23.274;2024-02-26T00:42:45;95086.41;;;6.22
42119;BMP280;27783;42.782;23.274;2024-02-26T00:45:14;95076.44;;;6.34
42119;BMP280;27783;42.782;23.274;2024-02-26T00:47:42;95073.09;;;6.41
42119;BMP280;27783;42.782;23.274;2024-02-26T00:50:09;95077.94;;;6.39
42119;BMP280;27783;42.782;23.274;2024-02-26T00:52:35;95068.19;;;6.32
42119;BMP280;27783;42.782;23.274;2024-02-26T00:55:02;95067.88;;;6.44
42119;BMP280;27783;42.782;23.274;2024-02-26T00:57:27;95070.84;;;6.43
42119;BMP280;27783;42.782;23.274;2024-02-26T00:59:53;95061.50;;;6.38
42119;BMP280;27783;42.782;23.274;2024-02-26T01:02:20;95060.78;;;6.45
42119;BMP280;27783;42.782;23.274;2024-02-26T01:04:45;95060.31;;;6.29
42119;BMP280;27783;42.782;23.274;2024-02-26T01:07:12;95062.06;;;6.12
42119;BMP280;27783;42.782;23.274;2024-02-26T01:09:37;95059.13;;;6.20
42119;BMP280;27783;42.782;23.274;2024-02-26T01:12:03;95068.09;;;5.70
42119;BMP280;27783;42.782;23.274;2024-02-26T01:14:29;95067.19;;;5.95
42119;BMP280;27783;42.782;23.274;2024-02-26T01:16:54;95062.84;;;6.12
42119;BMP280;27783;42.782;23.274;2024-02-26T01:19:20;95068.72;;;5.99
42119;BMP280;27783;42.782;23.274;2024-02-26T01:21:46;95073.06;;;5.82
42119;BMP280;27783;42.782;23.274;2024-02-26T01:24:12;95067.16;;;5.91
42119;BMP280;27783;42.782;23.274;2024-02-26T01:26:37;95057.13;;;6.00
42119;BMP280;27783;42.782;23.274;2024-02-26T01:29:02;95057.94;;;6.07
42119;BMP280;27783;42.782;23.274;2024-02-26T01:31:28;95052.03;;;6.20
42119;BMP280;27783;42.782;23.274;2024-02-26T01:33:53;95051.81;;;6.46
42119;BMP280;27783;42.782;23.274;2024-02-26T01:36:19;95055.88;;;6.40
42119;BMP280;27783;42.782;23.274;2024-02-26T01:38:44;95057.59;;;6.12
42119;BMP280;27783;42.782;23.274;2024-02-26T01:41:09;95050.56;;;6.26
42119;BMP280;27783;42.782;23.274;2024-02-26T01:43:35;95045.34;;;6.30
42119;BMP280;27783;42.782;23.274;2024-02-26T01:46:00;95039.53;;;6.56
42119;BMP280;27783;42.782;23.274;2024-02-26T01:48:26;95041.44;;;6.66
42119;BMP280;27783;42.782;23.274;2024-02-26T01:50:51;95046.22;;;6.50
42119;BMP280;27783;42.782;23.274;2024-02-26T01:53:18;95033.19;;;6.61
42119;BMP280;27783;42.782;23.274;2024-02-26T01:55:44;95035.88;;;6.78
42119;BMP280;27783;42.782;23.274;2024-02-26T01:58:10;95040.00;;;6.82
42119;BMP280;27783;42.782;23.274;2024-02-26T02:00:36;95038.03;;;6.62
42119;BMP280;27783;42.782;23.274;2024-02-26T02:03:03;95040.63;;;6.55
42119;BMP280;27783;42.782;23.274;2024-02-26T02:05:30;95050.03;;;6.66
42119;BMP280;27783;42.782;23.274;2024-02-26T02:07:55;95038.84;;;6.76
42119;BMP280;27783;42.782;23.274;2024-02-26T02:10:21;95038.16;;;6.89
42119;BMP280;27783;42.782;23.274;2024-02-26T02:12:48;95038.91;;;6.90
42119;BMP280;27783;42.782;23.274;2024-02-26T02:15:14;95037.06;;;6.97
42119;BMP280;27783;42.782;23.274;2024-02-26T02:17:40;95040.03;;;6.92
42119;BMP280;27783;42.782;23.274;2024-02-26T02:20:18;95037.34;;;6.72
42119;BMP280;27783;42.782;23.274;2024-02-26T02:22:46;95032.88;;;6.79
42119;BMP280;27783;42.782;23.274;2024-02-26T02:25:12;95032.91;;;6.86
42119;BMP280;27783;42.782;23.274;2024-02-26T02:27:37;95031.41;;;6.88
42119;BMP280;27783;42.782;23.274;2024-02-26T02:30:04;95029.97;;;6.98
42119;BMP280;27783;42.782;23.274;2024-02-26T02:32:29;95033.28;;;6.95
42119;BMP280;27783;42.782;23.274;2024-02-26T02:34:55;95030.31;;;6.93
42119;BMP280;27783;42.782;23.274;2024-02-26T02:37:21;95043.78;;;6.98
42119;BMP280;27783;42.782;23.274;2024-02-26T02:39:47;95043.44;;;6.99
42119;BMP280;27783;42.782;23.274;2024-02-26T02:42:12;95034.78;;;6.89
42119;BMP280;27783;42.782;23.274;2024-02-26T02:44:38;95043.44;;;6.99
42119;BMP280;27783;42.782;23.274;2024-02-26T02:47:03;95041.56;;;7.00
42119;BMP280;27783;42.782;23.274;2024-02-26T02:49:29;95039.31;;;7.02
42119;BMP280;27783;42.782;23.274;2024-02-26T02:51:54;95041.53;;;6.90
42119;BMP280;27783;42.782;23.274;2024-02-26T02:54:20;95049.44;;;7.00
42119;BMP280;27783;42.782;23.274;2024-02-26T02:56:46;95045.69;;;7.01
42119;BMP280;27783;42.782;23.274;2024-02-26T02:59:11;95047.53;;;6.90
42119;BMP280;27783;42.782;23.274;2024-02-26T03:01:37;95054.25;;;6.95
42119;BMP280;27783;42.782;23.274;2024-02-26T03:04:02;95049.03;;;6.91
42119;BMP280;27783;42.782;23.274;2024-02-26T03:06:28;95048.63;;;6.86
42119;BMP280;27783;42.782;23.274;2024-02-26T03:08:54;95050.47;;;6.85
42119;BMP280;27783;42.782;23.274;2024-02-26T03:11:19;95039.69;;;6.97
42119;BMP280;27783;42.782;23.274;2024-02-26T03:13:45;95040.84;;;7.10
42119;BMP280;27783;42.782;23.274;2024-02-26T03:16:11;95043.44;;;7.03
42119;BMP280;27783;42.782;23.274;2024-02-26T03:18:38;95051.63;;;6.84
42119;BMP280;27783;42.782;23.274;2024-02-26T03:21:04;95048.66;;;6.96
42119;BMP280;27783;42.782;23.274;2024-02-26T03:23:30;95043.00;;;6.81
42119;BMP280;27783;42.782;23.274;2024-02-26T03:25:57;95040.25;;;6.53
42119;BMP280;27783;42.782;23.274;2024-02-26T03:28:23;95047.09;;;6.71
42119;BMP280;27783;42.782;23.274;2024-02-26T03:30:48;95035.47;;;6.76
42119;BMP280;27783;42.782;23.274;2024-02-26T03:33:14;95031.03;;;6.83
42119;BMP280;27783;42.782;23.274;2024-02-26T03:35:39;95029.09;;;6.70
42119;BMP280;27783;42.782;23.274;2024-02-26T03:38:05;95021.97;;;6.60
42119;BMP280;27783;42.782;23.274;2024-02-26T03:40:30;95024.63;;;6.70
42119;BMP280;27783;42.782;23.274;2024-02-26T03:42:55;95025.72;;;6.66
42119;BMP280;27783;42.782;23.274;2024-02-26T03:45:22;95019.94;;;6.30
42119;BMP280;27783;42.782;23.274;2024-02-26T03:47:48;95016.50;;;6.19
42119;BMP280;27783;42.782;23.274;2024-02-26T03:50:13;95020.78;;;6.48
42119;BMP280;27783;42.782;23.274;2024-02-26T03:52:38;95022.28;;;6.48
42119;BMP280;27783;42.782;23.274;2024-02-26T03:55:05;95026.41;;;6.49
42119;BMP280;27783;42.782;23.274;2024-02-26T03:57:30;95021.59;;;6.65
42119;BMP280;27783;42.782;23.274;2024-02-26T03:59:56;95022.03;;;6.74
42119;BMP280;27783;42.782;23.274;2024-02-26T04:02:21;95020.53;;;6.80
42119;BMP280;27783;42.782;23.274;2024-02-26T04:04:48;95004.47;;;6.84
42119;BMP280;27783;42.782;23.274;2024-02-26T04:07:14;95014.22;;;6.91
42119;BMP280;27783;42.782;23.274;2024-02-26T04:09:39;95020.22;;;6.91
42119;BMP280;27783;42.782;23.274;2024-02-26T04:12:05;95023.56;;;6.95
42119;BMP280;27783;42.782;23.274;2024-02-26T04:14:31;95021.66;;;6.79
42119;BMP280;27783;42.782;23.274;2024-02-26T04:16:56;95020.59;;;6.93
42119;BMP280;27783;42.782;23.274;2024-02-26T04:19:21;95010.06;;;6.76
42119;BMP280;27783;42.782;23.274;2024-02-26T04:21:47;95001.41;;;6.69
42119;BMP280;27783;42.782;23.274;2024-02-26T04:24:12;95008.22;;;6.90
42119;BMP280;27783;42.782;23.274;2024-02-26T04:26:38;95012.72;;;6.93
42119;BMP280;27783;42.782;23.274;2024-02-26T04:29:03;94997.78;;;6.97
42119;BMP280;27783;42.782;23.274;2024-02-26T04:31:29;95009.75;;;7.01
42119;BMP280;27783;42.782;23.274;2024-02-26T04:33:56;95019.09;;;6.96
42119;BMP280;27783;42.782;23.274;2024-02-26T04:36:22;95022.44;;;6.89
42119;BMP280;27783;42.782;23.274;2024-02-26T04:38:47;95016.09;;;6.90
42119;BMP280;27783;42.782;23.274;2024-02-26T04:41:13;95015.66;;;6.82
42119;BMP280;27783;42.782;23.274;2024-02-26T04:43:38;95026.13;;;6.68
42119;BMP280;27783;42.782;23.274;2024-02-26T04:46:09;95014.59;;;6.93
42119;BMP280;27783;42.782;23.274;2024-02-26T04:48:35;95014.25;;;6.94
42119;BMP280;27783;42.782;23.274;2024-02-26T04:51:01;95018.78;;;7.24
42119;BMP280;27783;42.782;23.274;2024-02-26T04:53:27;95017.63;;;7.12
42119;BMP280;27783;42.782;23.274;2024-02-26T04:55:52;95018.78;;;7.14
42119;BMP280;27783;42.782;23.274;2024-02-26T04:58:19;95028.41;;;6.80
42119;BMP280;27783;42.782;23.274;2024-02-26T05:00:45;95034.38;;;6.77
42119;BMP280;27783;42.782;23.274;2024-02-26T05:03:10;95026.16;;;6.85
42119;BMP280;27783;42.782;23.274;2024-02-26T05:05:40;95032.53;;;6.81
42119;BMP280;27783;42.782;23.274;2024-02-26T05:08:06;95036.94;;;6.63
42119;BMP280;27783;42.782;23.274;2024-02-26T05:10:32;95048.84;;;6.50
42119;BMP280;27783;42.782;23.274;2024-02-26T05:12:58;95040.25;;;6.53
42119;BMP280;27783;42.782;23.274;2024-02-26T05:15:23;95030.19;;;6.65
42119;BMP280;27783;42.782;23.274;2024-02-26T05:17:49;95030.25;;;6.79
42119;BMP280;27783;42.782;23.274;2024-02-26T05:20:14;95035.22;;;6.98
42119;BMP280;27783;42.782;23.274;2024-02-26T05:22:39;95043.81;;;7.05
42119;BMP280;27783;42.782;23.274;2024-02-26T05:25:05;95040.44;;;7.01
42119;BMP280;27783;42.782;23.274;2024-02-26T05:27:30;95045.34;;;7.16
42119;BMP280;27783;42.782;23.274;2024-02-26T05:29:56;95053.59;;;7.21
42119;BMP280;27783;42.782;23.274;2024-02-26T05:32:21;95052.44;;;7.09
42119;BMP280;27783;42.782;23.274;2024-02-26T05:34:47;95053.13;;;6.96
42119;BMP280;27783;42.782;23.274;2024-02-26T05:37:12;95062.47;;;6.90
42119;BMP280;27783;42.782;23.274;2024-02-26T05:39:38;95058.28;;;6.75
42119;BMP280;27783;42.782;23.274;2024-02-26T05:42:04;95063.19;;;6.77
42119;BMP280;27783;42.782;23.274;2024-02-26T05:44:30;95064.66;;;6.71
42119;BMP280;27783;42.782;23.274;2024-02-26T05:46:55;95068.44;;;6.83
42119;BMP280;27783;42.782;23.274;2024-02-26T05:49:22;95077.03;;;6.81
42119;BMP280;27783;42.782;23.274;2024-02-26T05:51:48;95076.38;;;7.04
42119;BMP280;27783;42.782;23.274;2024-02-26T05:54:13;95079.06;;;7.21
42119;BMP280;27783;42.782;23.274;2024-02-26T05:56:39;95077.91;;;7.15
42119;BMP280;27783;42.782;23.274;2024-02-26T05:59:05;95082.75;;;7.10
42119;BMP280;27783;42.782;23.274;2024-02-26T06:01:30;95087.63;;;7.15
42119;BMP280;27783;42.782;23.274;2024-02-26T06:03:56;95080.97;;;7.31
42119;BMP280;27783;42.782;23.274;2024-02-26T06:06:22;95092.94;;;7.42
42119;BMP280;27783;42.782;23.274;2024-02-26T06:08:49;95083.22;;;7.42
42119;BMP280;27783;42.782;23.274;2024-02-26T06:11:14;95096.00;;;7.50
42119;BMP280;27783;42.782;23.274;2024-02-26T06:13:40;95093.72;;;7.52
42119;BMP280;27783;42.782;23.274;2024-02-26T06:16:05;95088.44;;;7.32
42119;BMP280;27783;42.782;23.274;2024-02-26T06:18:33;95095.56;;;7.42
42119;BMP280;27783;42.782;23.274;2024-02-26T06:20:58;95098.25;;;7.62
42119;BMP280;27783;42.782;23.274;2024-02-26T06:23:25;95105.00;;;7.63
42119;BMP280;27783;42.782;23.274;2024-02-26T06:25:51;95100.09;;;7.48
42119;BMP280;27783;42.782;23.274;2024-02-26T06:28:16;95100.09;;;7.51
42119;BMP280;27783;42.782;23.274;2024-02-26T06:30:42;95091.84;;;7.43
42119;BMP280;27783;42.782;23.274;2024-02-26T06:33:07;95091.50;;;7.68
42119;BMP280;27783;42.782;23.274;2024-02-26T06:35:33;95097.50;;;7.79
42119;BMP280;27783;42.782;23.274;2024-02-26T06:37:59;95102.78;;;7.92
42119;BMP280;27783;42.782;23.274;2024-02-26T06:40:24;95099.38;;;7.78
42119;BMP280;27783;42.782;23.274;2024-02-26T06:42:50;95099.03;;;7.83
42119;BMP280;27783;42.782;23.274;2024-02-26T06:45:17;95099.75;;;7.83
42119;BMP280;27783;42.782;23.274;2024-02-26T06:47:44;95100.50;;;7.91
42119;BMP280;27783;42.782;23.274;2024-02-26T06:50:12;95104.28;;;7.80
42119;BMP280;27783;42.782;23.274;2024-02-26T06:52:38;95105.75;;;7.94
42119;BMP280;27783;42.782;23.274;2024-02-26T06:55:04;95105.03;;;8.04
42119;BMP280;27783;42.782;23.274;2024-02-26T06:57:32;95108.06;;;8.19
42119;BMP280;27783;42.782;23.274;2024-02-26T06:59:57;95117.81;;;8.29
42119;BMP280;27783;42.782;23.274;2024-02-26T07:02:24;95106.56;;;8.32
42119;BMP280;27783;42.782;23.274;2024-02-26T07:04:50;95112.16;;;8.34
42119;BMP280;27783;42.782;23.274;2024-02-26T07:07:15;95103.53;;;8.47
42119;BMP280;27783;42.782;23.274;2024-02-26T07:09:43;95108.41;;;8.55
42119;BMP280;27783;42.782;23.274;2024-02-26T07:12:09;95108.75;;;8.57
42119;BMP280;27783;42.782;23.274;2024-02-26T07:14:34;95106.91;;;8.44
42119;BMP280;27783;42.782;23.274;2024-02-26T07:17:03;95114.78;;;8.54
42119;BMP280;27783;42.782;23.274;2024-02-26T07:19:28;95106.09;;;8.78
42119;BMP280;27783;42.782;23.274;2024-02-26T07:21:54;95107.22;;;8.77
42119;BMP280;27783;42.782;23.274;2024-02-26T07:24:19;95109.84;;;8.77
42119;BMP280;27783;42.782;23.274;2024-02-26T07:26:45;95122.56;;;8.95
42119;BMP280;27783;42.782;23.274;2024-02-26T07:29:10;95122.13;;;9.14
42119;BMP280;27783;42.782;23.274;2024-02-26T07:31:36;95116.06;;;9.20
42119;BMP280;27783;42.782;23.274;2024-02-26T07:34:01;95111.84;;;9.39
42119;BMP280;27783;42.782;23.274;2024-02-26T07:36:27;95117.16;;;9.29
42119;BMP280;27783;42.782;23.274;2024-02-26T07:38:52;95114.56;;;9.22
42119;BMP280;27783;42.782;23.274;2024-02-26T07:41:20;95122.78;;;9.34
42119;BMP280;27783;42.782;23.274;2024-02-26T07:43:45;95120.41;;;9.57
42119;BMP280;27783;42.782;23.274;2024-02-26T07:46:12;95116.66;;;9.61
42119;BMP280;27783;42.782;23.274;2024-02-26T07:48:38;95116.19;;;9.76
42119;BMP280;27783;42.782;23.274;2024-02-26T07:51:04;95120.03;;;9.55
42119;BMP280;27783;42.782;23.274;2024-02-26T07:53:30;95121.03;;;9.81
42119;BMP280;27783;42.782;23.274;2024-02-26T07:55:56;95115.81;;;9.74
42119;BMP280;27783;42.782;23.274;2024-02-26T07:58:23;95106.84;;;10.21
42119;BMP280;27783;42.782;23.274;2024-02-26T08:00:49;95101.19;;;10.23
42119;BMP280;27783;42.782;23.274;2024-02-26T08:03:15;95109.88;;;10.20
42119;BMP280;27783;42.782;23.274;2024-02-26T08:05:41;95106.50;;;10.16
42119;BMP280;27783;42.782;23.274;2024-02-26T08:08:08;95107.97;;;10.63
42119;BMP280;27783;42.782;23.274;2024-02-26T08:10:34;95103.03;;;10.68
42119;BMP280;27783;42.782;23.274;2024-02-26T08:13:00;95095.94;;;10.62
42119;BMP280;27783;42.782;23.274;2024-02-26T08:15:33;95090.25;;;10.64
42119;BMP280;27783;42.782;23.274;2024-02-26T08:18:00;95095.41;;;10.77
42119;BMP280;27783;42.782;23.274;2024-02-26T08:20:30;95096.38;;;10.90
42119;BMP280;27783;42.782;23.274;2024-02-26T08:22:56;95089.25;;;11.19
42119;BMP280;27783;42.782;23.274;2024-02-26T08:25:23;95095.06;;;11.08
42119;BMP280;27783;42.782;23.274;2024-02-26T08:27:48;95088.31;;;11.03
42119;BMP280;27783;42.782;23.274;2024-02-26T08:30:15;95081.25;;;11.30
42119;BMP280;27783;42.782;23.274;2024-02-26T08:32:43;95088.78;;;11.31
42119;BMP280;27783;42.782;23.274;2024-02-26T08:35:09;95086.53;;;11.30
42119;BMP280;27783;42.782;23.274;2024-02-26T08:37:35;95092.25;;;11.54
42119;BMP280;27783;42.782;23.274;2024-02-26T08:40:00;95093.56;;;11.68
42119;BMP280;27783;42.782;23.274;2024-02-26T08:42:26;95106.22;;;11.80
42119;BMP280;27783;42.782;23.274;2024-02-26T08:44:51;95102.72;;;11.86
42119;BMP280;27783;42.782;23.274;2024-02-26T08:47:17;95093.25;;;11.89
42119;BMP280;27783;42.782;23.274;2024-02-26T08:49:44;95102.28;;;11.91
42119;BMP280;27783;42.782;23.274;2024-02-26T08:52:10;95097.44;;;12.12
42119;BMP280;27783;42.782;23.274;2024-02-26T08:54:36;95092.19;;;12.09
42119;BMP280;27783;42.782;23.274;2024-02-26T08:57:02;95089.91;;;12.11
42119;BMP280;27783;42.782;23.274;2024-02-26T08:59:28;95083.78;;;12.17
42119;BMP280;27783;42.782;23.274;2024-02-26T09:01:53;95087.34;;;12.30
42119;BMP280;27783;42.782;23.274;2024-02-26T09:04:19;95086.09;;;12.60
42119;BMP280;27783;42.782;23.274;2024-02-26T09:06:44;95087.16;;;12.84
42119;BMP280;27783;42.782;23.274;2024-02-26T09:09:10;95082.09;;;12.71
42119;BMP280;27783;42.782;23.274;2024-02-26T09:11:36;95074.88;;;12.75
42119;BMP280;27783;42.782;23.274;2024-02-26T09:14:01;95082.09;;;12.71
42119;BMP280;27783;42.782;23.274;2024-02-26T09:16:31;95082.03;;;12.74
42119;BMP280;27783;42.782;23.274;2024-02-26T09:18:57;95075.56;;;12.98
42119;BMP280;27783;42.782;23.274;2024-02-26T09:21:22;95076.75;;;13.16
42119;BMP280;27783;42.782;23.274;2024-02-26T09:23:52;95072.94;;;13.17
42119;BMP280;27783;42.782;23.274;2024-02-26T09:26:18;95072.25;;;13.13
42119;BMP280;27783;42.782;23.274;2024-02-26T09:28:44;95067.25;;;12.99
42119;BMP280;27783;42.782;23.274;2024-02-26T09:31:10;95064.84;;;13.04
42119;BMP280;27783;42.782;23.274;2024-02-26T09:33:36;95064.03;;;13.07
42119;BMP280;27783;42.782;23.274;2024-02-26T09:36:02;95055.56;;;13.16
42119;BMP280;27783;42.782;23.274;2024-02-26T09:38:28;95059.56;;;13.42
42119;BMP280;27783;42.782;23.274;2024-02-26T09:40:58;95059.75;;;13.32
42119;BMP280;27783;42.782;23.274;2024-02-26T09:43:27;95053.06;;;13.62
42119;BMP280;27783;42.782;23.274;2024-02-26T09:45:54;95053.28;;;13.52
42119;BMP280;27783;42.782;23.274;2024-02-26T09:48:22;95046.69;;;13.94
42119;BMP280;27783;42.782;23.274;2024-02-26T09:50:48;95045.78;;;14.16
42119;BMP280;27783;42.782;23.274;2024-02-26T09:53:14;95035.75;;;14.08
42119;BMP280;27783;42.782;23.274;2024-02-26T09:55:43;95043.13;;;14.32
42119;BMP280;27783;42.782;23.274;2024-02-26T09:58:09;95037.56;;;14.42
42119;BMP280;27783;42.782;23.274;2024-02-26T10:00:38;95036.25;;;14.34
42119;BMP280;27783;42.782;23.274;2024-02-26T10:03:08;95026.72;;;14.36
42119;BMP280;27783;42.782;23.274;2024-02-26T10:05:37;95028.38;;;14.31
42119;BMP280;27783;42.782;23.274;2024-02-26T10:08:04;95039.22;;;14.20
42119;BMP280;27783;42.782;23.274;2024-02-26T10:10:30;95026.97;;;14.69
42119;BMP280;27783;42.782;23.274;2024-02-26T10:12:57;95026.59;;;14.55
42119;BMP280;27783;42.782;23.274;2024-02-26T10:15:24;95017.97;;;14.67
42119;BMP280;27783;42.782;23.274;2024-02-26T10:17:50;95024.28;;;14.57
42119;BMP280;27783;42.782;23.274;2024-02-26T10:20:18;95019.47;;;14.68
42119;BMP280;27783;42.782;23.274;2024-02-26T10:22:46;95012.91;;;15.00
42119;BMP280;27783;42.782;23.274;2024-02-26T10:25:12;95009.28;;;14.94
42119;BMP280;27783;42.782;23.274;2024-02-26T10:27:40;95009.22;;;15.10
42119;BMP280;27783;42.782;23.274;2024-02-26T10:30:19;95008.94;;;15.44
42119;BMP280;27783;42.782;23.274;2024-02-26T10:32:47;95007.03;;;15.20
42119;BMP280;27783;42.782;23.274;2024-02-26T10:35:16;95001.09;;;14.89
42119;BMP280;27783;42.782;23.274;2024-02-26T10:37:43;94996.78;;;15.07
42119;BMP280;27783;42.782;23.274;2024-02-26T10:40:13;94997.84;;;14.82
42119;BMP280;27783;42.782;23.274;2024-02-26T10:42:39;94988.84;;;15.07
42119;BMP280;27783;42.782;23.274;2024-02-26T10:45:05;94991.28;;;15.14
42119;BMP280;27783;42.782;23.274;2024-02-26T10:47:31;94992.28;;;14.92
42119;BMP280;27783;42.782;23.274;2024-02-26T10:49:59;94993.88;;;15.29
42119;BMP280;27783;42.782;23.274;2024-02-26T10:52:27;94986.19;;;15.07
42119;BMP280;27783;42.782;23.274;2024-02-26T10:54:57;94986.75;;;15.26
42119;BMP280;27783;42.782;23.274;2024-02-26T10:57:26;94982.00;;;14.94
42119;BMP280;27783;42.782;23.274;2024-02-26T10:59:52;94984.59;;;15.09
42119;BMP280;27783;42.782;23.274;2024-02-26T11:02:20;94981.44;;;15.26
42119;BMP280;27783;42.782;23.274;2024-02-26T11:04:46;94977.72;;;15.48
42119;BMP280;27783;42.782;23.274;2024-02-26T11:07:12;94974.63;;;15.25
42119;BMP280;27783;42.782;23.274;2024-02-26T11:09:38;94969.97;;;15.29
42119;BMP280;27783;42.782;23.274;2024-02-26T11:12:11;94974.19;;;15.15
42119;BMP280;27783;42.782;23.274;2024-02-26T11:14:44;94970.16;;;15.34
42119;BMP280;27783;42.782;23.274;2024-02-26T11:17:11;94961.69;;;15.27
42119;BMP280;27783;42.782;23.274;2024-02-26T11:19:38;94968.69;;;15.46
42119;BMP280;27783;42.782;23.274;2024-02-26T11:22:05;94966.34;;;15.23
42119;BMP280;27783;42.782;23.274;2024-02-26T11:24:32;94968.91;;;15.39
42119;BMP280;27783;42.782;23.274;2024-02-26T11:27:01;94962.00;;;15.66
42119;BMP280;27783;42.782;23.274;2024-02-26T11:29:32;94959.34;;;15.41
42119;BMP280;27783;42.782;23.274;2024-02-26T11:31:59;94957.97;;;15.49
42119;BMP280;27783;42.782;23.274;2024-02-26T11:34:25;94960.63;;;15.85
42119;BMP280;27783;42.782;23.274;2024-02-26T11:36:51;94950.44;;;15.72
42119;BMP280;27783;42.782;23.274;2024-02-26T11:39:17;94954.03;;;15.66
42119;BMP280;27783;42.782;23.274;2024-02-26T11:41:43;94944.34;;;15.83
42119;BMP280;27783;42.782;23.274;2024-02-26T11:44:09;94951.28;;;15.69
42119;BMP280;27783;42.782;23.274;2024-02-26T11:46:41;94943.50;;;15.86
42119;BMP280;27783;42.782;23.274;2024-02-26T11:49:30;94944.91;;;15.67
42119;BMP280;27783;42.782;23.274;2024-02-26T11:51:55;94941.38;;;15.57
42119;BMP280;27783;42.782;23.274;2024-02-26T11:57:30;94943.84;;;15.64
42119;BMP280;27783;42.782;23.274;2024-02-26T12:02:47;94934.38;;;15.75
42119;BMP280;27783;42.782;23.274;2024-02-26T12:05:15;94929.38;;;15.65
42119;BMP280;27783;42.782;23.274;2024-02-26T12:07:47;94942.88;;;15.70
42119;BMP280;27783;42.782;23.274;2024-02-26T12:10:21;94938.53;;;15.76
42119;BMP280;27783;42.782;23.274;2024-02-26T12:12:53;94934.69;;;15.77
42119;BMP280;27783;42.782;23.274;2024-02-26T12:15:18;94933.94;;;15.65
42119;BMP280;27783;42.782;23.274;2024-02-26T12:17:48;94933.19;;;15.88
42119;BMP280;27783;42.782;23.274;2024-02-26T12:20:14;94943.69;;;16.04
42119;BMP280;27783;42.782;23.274;2024-02-26T12:22:40;94937.03;;;16.00
42119;BMP280;27783;42.782;23.274;2024-02-26T12:25:09;94938.78;;;16.15
42119;BMP280;27783;42.782;23.274;2024-02-26T12:27:34;94934.16;;;16.06
42119;BMP280;27783;42.782;23.274;2024-02-26T12:30:01;94937.69;;;16.24
42119;BMP280;27783;42.782;23.274;2024-02-26T12:32:26;94932.72;;;16.26
42119;BMP280;27783;42.782;23.274;2024-02-26T12:34:52;94944.13;;;15.90
42119;BMP280;27783;42.782;23.274;2024-02-26T12:37:17;94942.53;;;16.05
42119;BMP280;27783;42.782;23.274;2024-02-26T12:39:43;94944.16;;;16.02
42119;BMP280;27783;42.782;23.274;2024-02-26T12:42:09;94938.78;;;16.15
42119;BMP280;27783;42.782;23.274;2024-02-26T12:44:35;94939.34;;;16.10
42119;BMP280;27783;42.782;23.274;2024-02-26T12:47:01;94931.34;;;16.22
42119;BMP280;27783;42.782;23.274;2024-02-26T12:49:30;94930.31;;;16.40
42119;BMP280;27783;42.782;23.274;2024-02-26T12:51:56;94928.50;;;16.91
42119;BMP280;27783;42.782;23.274;2024-02-26T12:54:28;94928.66;;;16.76
42119;BMP280;27783;42.782;23.274;2024-02-26T12:56:54;94933.03;;;16.70
42119;BMP280;27783;42.782;23.274;2024-02-26T12:59:20;94925.44;;;16.81
42119;BMP280;27783;42.782;23.274;2024-02-26T13:01:46;94928.28;;;16.65
42119;BMP280;27783;42.782;23.274;2024-02-26T13:04:11;94924.69;;;16.80
42119;BMP280;27783;42.782;23.274;2024-02-26T13:06:37;94934.84;;;16.73
42119;BMP280;27783;42.782;23.274;2024-02-26T13:09:02;94928.28;;;16.65
42119;BMP280;27783;42.782;23.274;2024-02-26T13:11:28;94931.69;;;16.66
42119;BMP280;27783;42.782;23.274;2024-02-26T13:13:54;94932.66;;;16.59
42119;BMP280;27783;42.782;23.274;2024-02-26T13:16:23;94920.25;;;16.77
42119;BMP280;27783;42.782;23.274;2024-02-26T13:18:49;94928.66;;;16.76
42119;BMP280;27783;42.782;23.274;2024-02-26T13:21:15;94932.94;;;16.52
42119;BMP280;27783;42.782;23.274;2024-02-26T13:23:42;94925.75;;;16.83
42119;BMP280;27783;42.782;23.274;2024-02-26T13:26:09;94932.88;;;16.65
42119;BMP280;27783;42.782;23.274;2024-02-26T13:28:37;94924.94;;;16.73
42119;BMP280;27783;42.782;23.274;2024-02-26T13:31:03;94929.75;;;16.66
42119;BMP280;27783;42.782;23.274;2024-02-26T13:33:30;94936.16;;;16.68
42119;BMP280;27783;42.782;23.274;2024-02-26T13:35:57;94934.97;;;16.49
42119;BMP280;27783;42.782;23.274;2024-02-26T13:38:23;94931.09;;;16.50
42119;BMP280;27783;42.782;23.274;2024-02-26T13:40:51;94931.91;;;16.38
42119;BMP280;27783;42.782;23.274;2024-02-26T13:43:17;94930.28;;;16.52
42119;BMP280;27783;42.782;23.274;2024-02-26T13:45:44;94938.50;;;16.46
42119;BMP280;27783;42.782;23.274;2024-02-26T13:48:11;94932.47;;;16.54
42119;BMP280;27783;42.782;23.274;2024-02-26T13:50:41;94934.47;;;16.41
42119;BMP280;27783;42.782;23.274;2024-02-26T13:53:08;94936.66;;;16.43
42119;BMP280;27783;42.782;23.274;2024-02-26T13:55:36;94931.16;;;16.37
42119;BMP280;27783;42.782;23.274;2024-02-26T13:58:02;94930.19;;;16.44
42119;BMP280;27783;42.782;23.274;2024-02-26T14:00:30;94933.41;;;16.39
42119;BMP280;27783;42.782;23.274;2024-02-26T14:03:00;94933.28;;;16.63
42119;BMP280;27783;42.782;23.274;2024-02-26T14:05:26;94933.28;;;16.42